Hlavní strana
METAR-TAF:

METAR-TAF

Letiště :

Kärdla, Estonsko

zeměpisná šířka: 58-59N, zeměpisná délka: 022-49E, výška: 5 m

Aktuální stav počasí

Zpráva byla vytvořena před 11 hodinami a 44 minutami, v 15:50 UTC
Jižní vítr 6 kt
Teplota 7°C
Vlhkost vzduchu 87%
Tlak 1020 hPa
Viditelnost 10 km a více
Žádná oblačnost pod 1500 m, nevyskytují se cumulonimby.

METAR: EEKA 171550Z 18006KT CAVOK 07/05 Q1020

Čas: 05:34 (03:34 UTC)

Předpověď počasí

Zpráva byla vytvořena před 14 hodinami a 34 minutami, v 13:00 UTC
Předpověď platná od 17 v 14 UTC do 17 v 20 UTC
Viditelnost 10 km a více
Polojasno ve výšce 2000 ft
Dočasný
od 17 v 14 UTC do 17 v 17 UTC
Oblačno až skoro zataženo ve výšce 1200 ft
Dočasný
od 17 v 17 UTC do 17 v 20 UTC
Viditelnost: 3000 m
Oblačno až skoro zataženo ve výšce 500 ft
kouřmo

TAF: EEKA 171300Z 1714/1720 2010KT 9999 SCT020 TEMPO 1714/1717 BKN012 TEMPO 1717/1720 3000 BR BKN005

Stav a předpovědi počasí z více než 4 000 letišť (zprávy METAR a TAF).

Červené a žluté tečky na mapě představují dostupné meteorologické stanice.

Když kurzor umístíte na tečku, zobrazí se název stanice.

Pak kliknutím zobrazíte stav a předpověď počasí.

Chcete-li změnit mapu, kliknutím na zelené tlačítko se znaménkem +mapu přiblížíte, kliknutím na zelené tlačítko se znaménkem – mapu oddálíte a kliknutím na zelené šipky přejdete na sousední mapy.


METAR-TAF: